Time;durP1;ratioP1;P1;durP2;ratioP2;P2;SDS_P1;SDS_P2;PMS_P1;PMS_P2;Temp;Humidity;BMP_temperature;BMP_pressure;BME280_temperature;BME280_humidity;BME280_pressure;Samples;Min_cycle;Max_cycle;Signal;HPM_P1;HPM_P2
2022/06/06 00:01:47;;;;;;;4.28;1.70;;;12.50;99.90;;;;;;4966822;28;20415;-86
2022/06/06 00:04:17;;;;;;;7.47;1.90;;;12.50;99.90;;;;;;4985788;28;20398;-87
2022/06/06 00:06:45;;;;;;;4.25;1.58;;;12.50;99.90;;;;;;4965236;28;20435;-85
2022/06/06 00:09:15;;;;;;;4.03;1.77;;;12.50;99.90;;;;;;4969967;28;20407;-84
2022/06/06 00:11:43;;;;;;;9.82;1.90;;;12.50;99.90;;;;;;4985048;28;20437;-85
2022/06/06 00:14:13;;;;;;;5.17;1.73;;;12.50;99.90;;;;;;4966651;28;20402;-86
2022/06/06 00:16:41;;;;;;;4.07;1.70;;;12.50;99.90;;;;;;4968317;28;20411;-86
2022/06/06 00:19:10;;;;;;;5.97;1.93;;;12.50;99.90;;;;;;4969475;28;20491;-83
2022/06/06 00:21:39;;;;;;;4.85;1.80;;;12.40;99.90;;;;;;4968807;28;20416;-87
2022/06/06 00:24:07;;;;;;;5.07;1.98;;;12.40;99.90;;;;;;4958085;28;20405;-85
2022/06/06 00:26:35;;;;;;;5.50;1.80;;;12.40;99.90;;;;;;4971142;28;20888;-85
2022/06/06 00:29:05;;;;;;;5.43;1.90;;;12.40;99.90;;;;;;4962201;28;20413;-85
2022/06/06 00:37:12;;;;;;;5.18;2.03;;;12.30;99.90;;;;;;4968072;28;20398;-86
2022/06/06 00:39:42;;;;;;;2.75;1.90;;;12.30;99.90;;;;;;4981441;28;20415;-86
2022/06/06 00:42:34;;;;;;;3.40;2.08;;;12.20;99.90;;;;;;4967895;28;20927;-86
2022/06/06 00:45:33;;;;;;;4.93;2.10;;;12.20;99.90;;;;;;4962001;28;20452;-85
2022/06/06 00:48:36;;;;;;;5.25;1.83;;;12.20;99.90;;;;;;4968371;28;20415;-86
2022/06/06 00:51:12;;;;;;;4.15;1.95;;;12.20;99.90;;;;;;4985260;28;20421;-86
2022/06/06 00:53:46;;;;;;;4.22;2.03;;;12.20;99.90;;;;;;4965994;28;20410;-85
2022/06/06 00:56:22;;;;;;;5.90;1.67;;;12.10;99.90;;;;;;4969522;28;20437;-84
2022/06/06 00:58:54;;;;;;;5.75;1.90;;;12.10;99.90;;;;;;4969945;28;20414;-87
2022/06/06 01:01:23;;;;;;;4.90;2.00;;;12.20;99.90;;;;;;4985807;28;20395;-86
2022/06/06 01:03:51;;;;;;;4.60;2.05;;;12.20;99.90;;;;;;4983514;28;20428;-84
2022/06/06 01:06:20;;;;;;;4.33;2.00;;;12.20;99.90;;;;;;4969160;28;20905;-86
2022/06/06 01:08:50;;;;;;;4.95;1.92;;;12.20;99.90;;;;;;4970084;28;20395;-85
2022/06/06 01:11:17;;;;;;;4.20;2.00;;;12.20;99.90;;;;;;4965409;28;20414;-86
2022/06/06 01:13:46;;;;;;;3.17;1.98;;;12.10;99.90;;;;;;4968733;28;20919;-85
2022/06/06 01:16:35;;;;;;;4.60;2.20;;;12.10;99.90;;;;;;4967962;28;20410;-85
2022/06/06 01:19:34;;;;;;;5.35;2.00;;;12.00;99.90;;;;;;4967195;28;20405;-86
2022/06/06 01:22:46;;;;;;;6.60;2.17;;;12.00;99.90;;;;;;4964458;28;20401;-85
2022/06/06 01:25:26;;;;;;;5.07;1.88;;;12.00;99.90;;;;;;4970506;28;20803;-87
2022/06/06 01:28:25;;;;;;;6.80;1.95;;;12.00;99.90;;;;;;4969393;28;20726;-85
2022/06/06 01:30:56;;;;;;;2.33;2.10;;;12.00;99.90;;;;;;4983650;28;20415;-86
2022/06/06 01:33:24;;;;;;;3.15;1.90;;;12.00;99.90;;;;;;4967066;28;20421;-85
2022/06/06 01:35:52;;;;;;;5.30;1.90;;;12.00;99.90;;;;;;4966127;28;20491;-86
2022/06/06 01:38:23;;;;;;;3.78;1.80;;;12.00;99.90;;;;;;4979519;28;20416;-85
2022/06/06 01:41:10;;;;;;;2.87;1.90;;;12.00;99.90;;;;;;4982316;28;20818;-86
2022/06/06 01:44:05;;;;;;;5.97;2.15;;;12.10;99.90;;;;;;4976386;28;20412;-85
2022/06/06 01:46:36;;;;;;;4.07;2.10;;;12.00;99.90;;;;;;4982500;28;20435;-85
2022/06/06 01:49:08;;;;;;;4.78;2.47;;;12.00;99.90;;;;;;4982824;28;20414;-86
2022/06/06 01:51:37;;;;;;;5.00;1.85;;;12.00;99.90;;;;;;4975060;28;20416;-86
2022/06/06 01:54:04;;;;;;;4.70;2.20;;;12.00;99.90;;;;;;4959972;28;20423;-85
2022/06/06 01:56:41;;;;;;;6.10;2.20;;;12.00;99.90;;;;;;4995452;28;20418;-85
2022/06/06 01:59:09;;;;;;;4.43;1.90;;;12.00;99.90;;;;;;4964530;28;20449;-83
2022/06/06 02:01:36;;;;;;;5.65;2.38;;;11.90;99.90;;;;;;4983778;28;20455;-85
2022/06/06 02:04:05;;;;;;;6.00;2.30;;;12.00;99.90;;;;;;4963996;28;20931;-85
2022/06/06 02:06:32;;;;;;;4.78;2.17;;;11.90;99.90;;;;;;4966437;28;20404;-84
2022/06/06 02:09:00;;;;;;;5.72;2.13;;;11.90;99.90;;;;;;4965060;28;20421;-86
2022/06/06 02:11:28;;;;;;;4.57;2.10;;;11.90;99.90;;;;;;4968197;28;20391;-86
2022/06/06 02:13:55;;;;;;;5.87;2.00;;;11.90;99.90;;;;;;4984630;28;20801;-86
2022/06/06 02:16:24;;;;;;;5.35;2.38;;;11.90;99.90;;;;;;4951578;28;20965;-85
2022/06/06 02:18:52;;;;;;;4.65;2.28;;;11.90;99.90;;;;;;4962391;28;20872;-84
2022/06/06 02:21:20;;;;;;;4.95;2.30;;;11.90;99.90;;;;;;4964153;28;20986;-85
2022/06/06 02:23:48;;;;;;;2.50;2.00;;;11.80;99.90;;;;;;4960458;28;20419;-84
2022/06/06 02:26:16;;;;;;;5.95;2.03;;;11.80;99.90;;;;;;4960381;28;20408;-87
2022/06/06 02:28:45;;;;;;;5.35;2.35;;;11.80;99.90;;;;;;4957790;28;20429;-86
2022/06/06 02:31:12;;;;;;;3.10;2.10;;;11.80;99.90;;;;;;4976707;28;20472;-85
2022/06/06 02:33:40;;;;;;;4.03;1.90;;;11.70;99.90;;;;;;4959964;28;20777;-84
2022/06/06 02:36:08;;;;;;;6.63;2.58;;;11.70;99.90;;;;;;4975260;28;20389;-86
2022/06/06 02:38:35;;;;;;;4.88;2.20;;;11.70;99.90;;;;;;4976891;28;20482;-84
2022/06/06 02:41:09;;;;;;;5.10;2.57;;;11.70;99.90;;;;;;4976324;28;20388;-85
2022/06/06 02:43:42;;;;;;;4.15;1.92;;;11.70;99.90;;;;;;4977472;28;21006;-86
2022/06/06 02:46:13;;;;;;;5.85;2.28;;;11.70;99.90;;;;;;4953120;28;20413;-84
2022/06/06 02:48:41;;;;;;;7.83;2.00;;;11.70;99.90;;;;;;4961183;28;20835;-86
2022/06/06 02:51:08;;;;;;;4.25;2.20;;;11.80;99.90;;;;;;4959216;28;20410;-81
2022/06/06 02:53:36;;;;;;;6.00;2.25;;;11.80;99.90;;;;;;4957226;28;20916;-85
2022/06/06 02:56:04;;;;;;;3.42;1.83;;;11.80;99.90;;;;;;4966293;28;20806;-86
2022/06/06 02:58:32;;;;;;;7.53;2.30;;;11.80;99.90;;;;;;4963854;28;20454;-87
2022/06/06 03:01:07;;;;;;;3.63;2.20;;;11.80;99.90;;;;;;4961493;28;20415;-86
2022/06/06 03:03:36;;;;;;;2.83;2.20;;;11.70;99.90;;;;;;4957321;28;20407;-85
2022/06/06 03:06:16;;;;;;;4.97;2.38;;;11.70;99.90;;;;;;4959363;28;20384;-85
2022/06/06 03:08:58;;;;;;;3.83;2.25;;;11.70;99.90;;;;;;4964873;28;20410;-86
2022/06/06 03:11:44;;;;;;;4.22;1.80;;;11.70;99.90;;;;;;4966955;28;20414;-85
2022/06/06 03:14:37;;;;;;;6.75;2.70;;;11.70;99.90;;;;;;4970862;28;20414;-86
2022/06/06 03:20:47;;;;;;;3.40;1.73;;;11.70;99.90;;;;;;4968321;28;20411;-87
2022/06/06 03:23:22;;;;;;;3.90;1.90;;;11.70;99.90;;;;;;4970052;28;20407;-85
2022/06/06 03:26:12;;;;;;;5.90;2.38;;;11.80;99.90;;;;;;4968876;28;20412;-84
2022/06/06 03:28:48;;;;;;;4.13;2.07;;;11.80;99.90;;;;;;4969748;28;20438;-85
2022/06/06 03:31:46;;;;;;;3.47;1.90;;;11.80;99.90;;;;;;4969887;28;20406;-85
2022/06/06 03:34:29;;;;;;;3.88;2.10;;;11.80;99.90;;;;;;4961849;28;20438;-86
2022/06/06 03:37:17;;;;;;;3.60;1.83;;;11.60;99.90;;;;;;4970456;28;20769;-86
2022/06/06 03:40:17;;;;;;;5.63;2.28;;;11.70;99.90;;;;;;4975816;28;20451;-86
2022/06/06 03:42:48;;;;;;;2.67;1.95;;;11.80;99.90;;;;;;4965370;28;20409;-86
2022/06/06 03:45:49;;;;;;;3.40;2.00;;;11.80;99.90;;;;;;4987284;28;20482;-87
2022/06/06 03:48:29;;;;;;;3.03;2.05;;;11.80;99.90;;;;;;4997040;28;20905;-86
2022/06/06 03:51:19;;;;;;;3.05;1.85;;;11.70;99.90;;;;;;4968465;28;20415;-86
2022/06/06 03:53:51;;;;;;;3.00;1.80;;;11.60;99.90;;;;;;4964781;28;20420;-86
2022/06/06 03:56:37;;;;;;;3.30;1.77;;;11.60;99.90;;;;;;4969203;28;20510;-85
2022/06/06 03:59:07;;;;;;;2.88;1.67;;;11.60;99.90;;;;;;4965450;28;20469;-86
2022/06/06 04:01:39;;;;;;;5.53;1.95;;;11.60;99.90;;;;;;4979909;28;20904;-85
2022/06/06 04:04:08;;;;;;;2.90;1.67;;;11.80;99.90;;;;;;4967220;28;20499;-85
2022/06/06 04:06:36;;;;;;;2.08;1.50;;;11.80;99.90;;;;;;4965925;28;20557;-87
2022/06/06 04:09:04;;;;;;;2.73;1.37;;;11.70;99.90;;;;;;4961117;28;20395;-86
2022/06/06 04:11:48;;;;;;;2.80;1.70;;;11.60;99.90;;;;;;4964868;28;20413;-86
2022/06/06 04:14:33;;;;;;;3.67;1.55;;;11.70;99.90;;;;;;4971390;28;20411;-86
2022/06/06 04:17:01;;;;;;;3.83;1.70;;;11.80;99.90;;;;;;4962521;28;20405;-86
2022/06/06 04:19:37;;;;;;;3.42;1.60;;;11.90;99.90;;;;;;4970221;28;20970;-85
2022/06/06 04:22:37;;;;;;;3.45;1.45;;;11.90;99.90;;;;;;4970884;28;20387;-87
2022/06/06 04:25:23;;;;;;;1.90;1.27;;;12.00;99.90;;;;;;4962532;28;20862;-85
2022/06/06 04:28:23;;;;;;;2.50;1.10;;;12.00;99.90;;;;;;4969647;28;20394;-85
2022/06/06 04:31:09;;;;;;;3.17;1.20;;;12.10;99.90;;;;;;4974107;28;20397;-86
2022/06/06 04:34:09;;;;;;;8.63;4.85;;;12.10;99.90;;;;;;4966752;28;20414;-85
2022/06/06 04:37:22;;;;;;;2.92;1.60;;;12.20;99.90;;;;;;4983034;28;20522;-85
2022/06/06 04:40:00;;;;;;;2.92;2.22;;;12.30;99.90;;;;;;4958271;28;20402;-85
2022/06/06 04:42:50;;;;;;;3.53;2.03;;;12.40;99.90;;;;;;4967622;28;20402;-86
2022/06/06 04:45:32;;;;;;;3.20;1.30;;;12.50;99.90;;;;;;4964089;28;20403;-86
2022/06/06 04:48:01;;;;;;;4.20;1.80;;;12.60;99.90;;;;;;4966340;28;20970;-87
2022/06/06 04:50:29;;;;;;;4.85;1.90;;;12.60;99.90;;;;;;4968880;28;20480;-87
2022/06/06 04:53:07;;;;;;;2.88;1.67;;;12.70;99.90;;;;;;4954320;28;21123;-86
2022/06/06 04:55:37;;;;;;;2.42;2.08;;;12.80;99.90;;;;;;4982439;28;20425;-86
2022/06/06 04:58:06;;;;;;;2.47;1.50;;;12.90;99.90;;;;;;4967927;28;20470;-86
2022/06/06 05:00:39;;;;;;;3.30;2.03;;;12.90;99.90;;;;;;4976042;28;20799;-84
2022/06/06 05:03:07;;;;;;;4.43;2.58;;;13.00;99.90;;;;;;4980054;28;20407;-84
2022/06/06 05:05:55;;;;;;;3.17;1.90;;;13.10;99.90;;;;;;4970447;28;20411;-83
2022/06/06 05:08:34;;;;;;;2.35;1.60;;;13.10;99.90;;;;;;4995018;28;20781;-84
2022/06/06 05:11:24;;;;;;;2.80;1.58;;;13.20;99.90;;;;;;4968367;28;20446;-84
2022/06/06 05:14:10;;;;;;;3.20;1.85;;;13.30;99.90;;;;;;4964972;28;20407;-83
2022/06/06 05:16:43;;;;;;;2.60;1.83;;;13.40;99.90;;;;;;4980734;28;20438;-84
2022/06/06 05:19:32;;;;;;;3.40;1.70;;;13.50;99.90;;;;;;4968074;28;20973;-83
2022/06/06 05:22:18;;;;;;;4.75;2.63;;;13.60;99.90;;;;;;4979676;28;20784;-84
2022/06/06 05:24:55;;;;;;;5.50;2.58;;;13.60;99.90;;;;;;4964767;28;20407;-85
2022/06/06 05:28:12;;;;;;;4.03;2.65;;;13.70;99.90;;;;;;4967524;28;20411;-85
2022/06/06 05:31:00;;;;;;;4.50;2.70;;;13.80;99.90;;;;;;4963251;28;20410;-83
2022/06/06 05:33:38;;;;;;;3.53;2.05;;;13.80;99.90;;;;;;4959612;28;20411;-85
2022/06/06 05:36:12;;;;;;;2.60;1.63;;;13.60;99.90;;;;;;4960389;28;20472;-86
2022/06/06 05:39:01;;;;;;;1.40;1.30;;;13.60;99.90;;;;;;4961945;28;20940;-86
2022/06/06 05:41:49;;;;;;;3.53;1.80;;;13.60;99.90;;;;;;4959298;28;20408;-86
2022/06/06 05:44:41;;;;;;;3.35;1.70;;;13.60;99.90;;;;;;4961952;28;20468;-86
2022/06/06 05:47:26;;;;;;;2.70;1.60;;;13.60;99.90;;;;;;4974117;28;20402;-86
2022/06/06 05:50:18;;;;;;;1.60;1.40;;;13.50;99.90;;;;;;4968618;28;20430;-85
2022/06/06 05:53:05;;;;;;;2.97;1.80;;;13.60;99.90;;;;;;4965332;28;20475;-86
2022/06/06 05:55:42;;;;;;;2.20;1.50;;;13.50;99.90;;;;;;4975262;28;20471;-86
2022/06/06 05:58:12;;;;;;;2.50;1.33;;;13.60;99.90;;;;;;4965361;28;20463;-86
2022/06/06 06:01:02;;;;;;;4.35;1.67;;;13.60;99.90;;;;;;4960169;28;20408;-86
2022/06/06 06:03:30;;;;;;;2.50;1.60;;;13.60;99.90;;;;;;4976485;28;20392;-86
2022/06/06 06:06:33;;;;;;;2.70;1.48;;;13.80;99.90;;;;;;4972685;28;20420;-86
2022/06/06 06:09:18;;;;;;;2.85;1.38;;;13.90;99.90;;;;;;4964168;28;20511;-86
2022/06/06 06:12:01;;;;;;;1.73;1.43;;;14.10;99.90;;;;;;4983706;28;20415;-86
2022/06/06 06:14:34;;;;;;;2.20;1.30;;;14.20;99.90;;;;;;4997953;28;20437;-85
2022/06/06 06:17:04;;;;;;;3.47;1.47;;;14.40;99.90;;;;;;4986341;28;20521;-85
2022/06/06 06:19:42;;;;;;;2.70;1.52;;;14.50;99.90;;;;;;4962629;28;20416;-86
2022/06/06 06:22:10;;;;;;;2.38;1.50;;;14.50;99.90;;;;;;4979692;28;20397;-86
2022/06/06 06:24:41;;;;;;;1.92;1.45;;;14.30;99.90;;;;;;4968509;28;20417;-87
2022/06/06 06:27:10;;;;;;;1.75;1.33;;;14.30;99.90;;;;;;4979260;28;20411;-85
2022/06/06 06:29:39;;;;;;;2.13;1.60;;;14.40;99.90;;;;;;4967922;28;20501;-86
2022/06/06 06:32:31;;;;;;;2.10;1.40;;;14.70;99.90;;;;;;4966313;28;20407;-86
2022/06/06 06:35:21;;;;;;;3.67;1.60;;;15.00;99.90;;;;;;4960429;28;20602;-85
2022/06/06 06:37:52;;;;;;;2.42;1.65;;;15.00;99.90;;;;;;4963817;28;20409;-86
2022/06/06 06:40:45;;;;;;;2.42;1.40;;;14.90;99.90;;;;;;4964686;28;20410;-87
2022/06/06 06:43:20;;;;;;;4.15;1.50;;;15.00;99.90;;;;;;4957021;28;20424;-86
2022/06/06 06:45:51;;;;;;;2.90;1.48;;;15.00;99.90;;;;;;5007888;28;20407;-83
2022/06/06 06:48:47;;;;;;;3.28;1.58;;;15.20;99.90;;;;;;4986862;28;20483;-86
2022/06/06 06:51:18;;;;;;;4.15;1.50;;;15.10;99.90;;;;;;4967718;28;20901;-86
2022/06/06 06:54:03;;;;;;;3.70;1.50;;;15.10;99.90;;;;;;4982791;28;20412;-85
2022/06/06 06:56:30;;;;;;;2.17;1.47;;;15.10;99.90;;;;;;4968381;28;20412;-85
2022/06/06 06:59:10;;;;;;;2.20;1.55;;;15.20;99.90;;;;;;4990076;28;20877;-86
2022/06/06 07:11:18;;;;;;;3.10;1.75;;;15.40;99.90;;;;;;4966626;28;20522;-86
2022/06/06 07:14:04;;;;;;;2.85;1.63;;;15.50;99.90;;;;;;4985250;28;20435;-86
2022/06/06 07:16:35;;;;;;;2.78;1.60;;;15.60;99.90;;;;;;4958099;28;20412;-86
2022/06/06 07:19:10;;;;;;;2.40;2.00;;;15.60;99.90;;;;;;4963057;28;20455;-85
2022/06/06 07:21:40;;;;;;;2.78;1.70;;;15.80;99.90;;;;;;4954183;28;20809;-85
2022/06/06 07:24:10;;;;;;;2.87;1.60;;;15.70;99.90;;;;;;4960500;28;20402;-86
2022/06/06 07:26:41;;;;;;;2.08;1.38;;;15.80;99.90;;;;;;4966691;28;20419;-86
2022/06/06 07:29:12;;;;;;;2.40;1.52;;;16.00;99.90;;;;;;4985481;28;20438;-86
2022/06/06 07:31:51;;;;;;;2.83;1.60;;;16.00;99.90;;;;;;4965908;28;20412;-85
2022/06/06 07:34:21;;;;;;;2.47;1.40;;;16.40;99.90;;;;;;4962098;28;20474;-86
2022/06/06 07:37:07;;;;;;;2.95;1.60;;;16.50;99.90;;;;;;4969730;28;20421;-87
2022/06/06 07:39:59;;;;;;;4.13;1.77;;;16.30;99.90;;;;;;4983312;28;20400;-86
2022/06/06 07:43:00;;;;;;;2.92;1.80;;;16.20;99.90;;;;;;4967487;28;20506;-86
2022/06/06 07:45:50;;;;;;;3.20;1.70;;;16.20;99.90;;;;;;4981485;28;20459;-87
2022/06/06 07:48:45;;;;;;;2.33;1.83;;;16.30;99.90;;;;;;4968121;28;20436;-86
2022/06/06 07:51:20;;;;;;;2.45;1.92;;;16.40;99.90;;;;;;4977854;28;20885;-85
2022/06/06 07:54:17;;;;;;;2.88;2.10;;;16.30;99.90;;;;;;4961254;28;20474;-85
2022/06/06 07:56:44;;;;;;;3.60;2.13;;;16.70;99.90;;;;;;4967946;28;20417;-86
2022/06/06 07:59:38;;;;;;;2.88;2.00;;;16.70;99.90;;;;;;4970998;28;20441;-87
2022/06/06 08:02:33;;;;;;;3.30;1.95;;;16.70;99.90;;;;;;4948997;28;20395;-86
2022/06/06 08:05:38;;;;;;;2.75;2.10;;;16.80;99.90;;;;;;4965759;28;20993;-86
2022/06/06 08:08:19;;;;;;;5.20;2.10;;;16.80;99.90;;;;;;4968203;28;20418;-87
2022/06/06 08:10:49;;;;;;;3.10;1.83;;;16.90;99.90;;;;;;4967904;28;20403;-87
2022/06/06 08:13:46;;;;;;;2.97;2.10;;;16.90;99.90;;;;;;4972667;28;20412;-86
2022/06/06 08:16:30;;;;;;;3.93;2.00;;;17.00;99.90;;;;;;4963569;28;20411;-86
2022/06/06 08:19:22;;;;;;;3.75;2.00;;;17.10;99.90;;;;;;4965514;28;20970;-86
2022/06/06 08:21:50;;;;;;;3.00;2.08;;;17.30;99.90;;;;;;4963588;28;20739;-86
2022/06/06 08:24:56;;;;;;;2.83;2.10;;;17.30;99.90;;;;;;4965833;28;20407;-86
2022/06/06 08:27:33;;;;;;;2.93;2.07;;;17.40;99.90;;;;;;5005909;28;20485;-87
2022/06/06 08:30:02;;;;;;;3.92;2.13;;;17.30;99.90;;;;;;4969737;28;20414;-86
2022/06/06 08:32:29;;;;;;;2.60;2.10;;;17.50;99.90;;;;;;4965824;28;20414;-86
2022/06/06 08:34:57;;;;;;;3.30;1.80;;;17.60;99.90;;;;;;4967188;28;20424;-86
2022/06/06 08:37:40;;;;;;;3.35;2.00;;;17.50;99.90;;;;;;4965355;28;20407;-86
2022/06/06 08:40:16;;;;;;;3.17;2.20;;;17.60;99.90;;;;;;4960993;28;20405;-87
2022/06/06 08:43:18;;;;;;;2.42;1.80;;;17.60;99.90;;;;;;4961433;28;20409;-86
2022/06/06 08:46:17;;;;;;;4.32;2.00;;;17.90;99.90;;;;;;4962757;28;20445;-86
2022/06/06 08:50:44;;;;;;;3.10;1.92;;;17.80;99.90;;;;;;4963058;28;20457;-86
2022/06/06 08:52:19;;;;;;;4.63;2.10;;;17.80;99.90;;;;;;4970373;28;20498;-87
2022/06/06 08:55:14;;;;;;;2.22;1.83;;;18.00;99.90;;;;;;4965265;28;20433;-86
2022/06/06 08:58:12;;;;;;;3.08;1.83;;;18.00;99.90;;;;;;4976002;28;20409;-86
2022/06/06 09:01:11;;;;;;;3.65;2.10;;;18.00;99.90;;;;;;4961229;28;20420;-87
2022/06/06 09:04:21;;;;;;;3.00;1.90;;;18.00;99.90;;;;;;4964743;28;20406;-87
2022/06/06 09:07:13;;;;;;;3.25;1.95;;;18.00;99.90;;;;;;4964738;28;20473;-86
2022/06/06 09:10:18;;;;;;;4.22;2.13;;;17.90;99.90;;;;;;4967136;28;20407;-87
2022/06/06 09:13:06;;;;;;;2.47;1.90;;;17.80;99.90;;;;;;4965764;28;20446;-86
2022/06/06 09:15:42;;;;;;;2.45;1.88;;;17.80;99.90;;;;;;4970970;28;20441;-85
2022/06/06 09:18:16;;;;;;;3.75;2.38;;;17.80;99.90;;;;;;4969537;28;20964;-86
2022/06/06 09:20:55;;;;;;;3.05;1.90;;;17.90;99.90;;;;;;4969422;28;20396;-87
2022/06/06 09:23:55;;;;;;;4.43;2.00;;;17.90;99.90;;;;;;4967280;28;20402;-85
2022/06/06 09:26:24;;;;;;;4.37;2.20;;;18.10;99.90;;;;;;4960489;28;20418;-87
2022/06/06 09:29:11;;;;;;;3.47;2.10;;;18.30;99.90;;;;;;4967796;28;20521;-86
2022/06/06 09:32:00;;;;;;;3.38;1.80;;;18.50;99.90;;;;;;4958588;28;20454;-86
2022/06/06 09:34:59;;;;;;;2.35;1.80;;;18.70;99.90;;;;;;4961377;28;20438;-87
2022/06/06 09:37:50;;;;;;;3.47;2.17;;;18.70;99.90;;;;;;4959297;28;20507;-86
2022/06/06 09:40:43;;;;;;;2.88;2.20;;;18.70;99.90;;;;;;4959752;28;20773;-87
2022/06/06 09:43:33;;;;;;;4.68;2.50;;;18.70;99.90;;;;;;4952336;28;20498;-86
2022/06/06 09:46:38;;;;;;;4.28;1.80;;;18.50;99.90;;;;;;4968713;28;20976;-86
2022/06/06 09:49:12;;;;;;;2.75;2.17;;;18.70;99.90;;;;;;4960430;28;20512;-87
2022/06/06 09:52:13;;;;;;;2.13;1.80;;;18.90;99.90;;;;;;4962696;28;20414;-87
2022/06/06 10:01:30;;;;;;;2.47;1.60;;;19.20;99.90;;;;;;4968668;28;20398;-85
2022/06/06 10:04:25;;;;;;;3.00;1.80;;;19.10;99.90;;;;;;4968071;28;20417;-86
2022/06/06 10:07:03;;;;;;;2.13;1.80;;;19.00;99.90;;;;;;4966023;28;20437;-86
2022/06/06 10:09:47;;;;;;;2.80;1.90;;;18.80;99.90;;;;;;4959234;28;20408;-83
2022/06/06 10:12:46;;;;;;;2.53;1.85;;;18.70;99.90;;;;;;4970573;28;20399;-86
2022/06/06 10:15:19;;;;;;;4.97;2.60;;;18.60;99.90;;;;;;4961896;28;20404;-87
2022/06/06 10:18:14;;;;;;;5.72;2.50;;;18.60;99.90;;;;;;4965171;28;20407;-88
2022/06/06 10:21:01;;;;;;;4.50;2.00;;;18.60;99.90;;;;;;4961061;28;20405;-88
2022/06/06 10:23:43;;;;;;;3.05;1.95;;;18.70;99.90;;;;;;4967383;28;20494;-87
2022/06/06 10:26:47;;;;;;;3.97;2.17;;;18.80;99.90;;;;;;4962014;28;20420;-84
2022/06/06 10:29:24;;;;;;;3.05;2.10;;;18.90;99.90;;;;;;4947939;28;20415;-86
2022/06/06 10:31:59;;;;;;;3.65;2.03;;;19.20;99.90;;;;;;4960450;28;20906;-87
2022/06/06 10:34:55;;;;;;;2.57;2.00;;;19.10;99.90;;;;;;4965407;28;20442;-88
2022/06/06 10:37:32;;;;;;;4.60;1.60;;;19.40;99.90;;;;;;4970284;28;20425;-86
2022/06/06 10:40:28;;;;;;;2.00;1.60;;;19.40;99.90;;;;;;5000457;28;20764;-88
2022/06/06 10:43:19;;;;;;;5.50;1.90;;;19.50;99.90;;;;;;4944834;28;20777;-88
2022/06/06 10:45:49;;;;;;;2.97;1.90;;;19.60;99.90;;;;;;4959656;28;20412;-87
2022/06/06 10:48:41;;;;;;;2.47;1.75;;;19.70;99.90;;;;;;4984007;28;20468;-88
2022/06/06 10:52:06;;;;;;;2.50;1.83;;;19.80;99.90;;;;;;4979925;28;20414;-84
2022/06/06 10:54:36;;;;;;;3.80;2.00;;;19.80;99.90;;;;;;4998129;28;20460;-88
2022/06/06 10:57:25;;;;;;;3.58;1.85;;;19.60;99.90;;;;;;5012906;28;20409;-87
2022/06/06 11:00:11;;;;;;;2.53;1.98;;;19.50;99.90;;;;;;4976009;28;20466;-86
2022/06/06 11:03:03;;;;;;;3.30;1.92;;;19.40;99.90;;;;;;4962823;28;20406;-86
2022/06/06 11:05:55;;;;;;;3.93;1.97;;;19.50;99.90;;;;;;4977746;28;20404;-86
2022/06/06 11:08:55;;;;;;;2.30;2.08;;;19.50;99.90;;;;;;4958268;28;20439;-88
2022/06/06 11:11:43;;;;;;;2.38;1.70;;;19.50;99.90;;;;;;4946310;28;20411;-88
2022/06/06 11:14:30;;;;;;;2.83;1.80;;;19.50;99.90;;;;;;4966122;28;20398;-86
2022/06/06 11:17:15;;;;;;;3.10;1.97;;;19.80;99.90;;;;;;4945602;28;20458;-85
2022/06/06 11:19:52;;;;;;;4.05;1.77;;;19.90;99.90;;;;;;4978729;28;20419;-88
2022/06/06 11:22:29;;;;;;;3.20;1.90;;;20.10;99.90;;;;;;4968832;28;20401;-86
2022/06/06 11:25:09;;;;;;;2.88;1.80;;;20.10;99.90;;;;;;4979290;28;20407;-86
2022/06/06 11:27:55;;;;;;;2.95;1.95;;;20.20;99.90;;;;;;4980134;28;20689;-84
2022/06/06 11:30:41;;;;;;;4.57;2.10;;;20.30;99.90;;;;;;4964249;28;20416;-88
2022/06/06 11:33:44;;;;;;;3.50;1.92;;;20.20;99.90;;;;;;4979412;28;20486;-87
2022/06/06 11:36:29;;;;;;;4.28;1.98;;;20.30;99.90;;;;;;4968964;28;20414;-88
2022/06/06 11:39:21;;;;;;;2.70;1.88;;;20.20;99.90;;;;;;4968730;28;20391;-86
2022/06/06 11:42:03;;;;;;;3.78;2.20;;;20.10;99.90;;;;;;4985015;28;20853;-88
2022/06/06 11:45:09;;;;;;;2.55;2.13;;;20.20;99.90;;;;;;4983086;28;20759;-84
2022/06/06 11:48:01;;;;;;;2.75;1.85;;;20.50;99.90;;;;;;4971961;28;20405;-87
2022/06/06 11:50:53;;;;;;;5.30;2.00;;;20.50;99.90;;;;;;4962000;28;20416;-87
2022/06/06 11:54:03;;;;;;;3.42;2.20;;;20.50;99.90;;;;;;4979545;28;20503;-87
2022/06/06 11:56:42;;;;;;;3.40;2.00;;;20.40;99.90;;;;;;4965908;28;20427;-87
2022/06/06 11:59:41;;;;;;;2.75;1.85;;;20.20;99.90;;;;;;4971159;28;20428;-87
2022/06/06 12:02:47;;;;;;;3.40;1.90;;;20.20;99.90;;;;;;4941967;28;20427;-82
2022/06/06 12:05:40;;;;;;;3.70;1.90;;;20.20;99.90;;;;;;4985496;28;20847;-86
2022/06/06 12:08:32;;;;;;;2.90;1.90;;;20.30;99.90;;;;;;4957781;28;20408;-87
2022/06/06 12:11:37;;;;;;;3.83;2.10;;;20.40;99.90;;;;;;4971005;28;20456;-88
2022/06/06 12:14:32;;;;;;;3.45;2.05;;;20.40;99.90;;;;;;4969265;28;20521;-87
2022/06/06 12:17:05;;;;;;;2.85;1.60;;;20.30;99.90;;;;;;4986489;28;20410;-87
2022/06/06 12:19:44;;;;;;;3.55;1.98;;;20.30;99.90;;;;;;4971667;28;20487;-85
2022/06/06 12:22:35;;;;;;;3.83;2.20;;;20.40;99.90;;;;;;4970699;28;20505;-87
2022/06/06 12:25:40;;;;;;;2.90;1.83;;;20.70;99.90;;;;;;4975695;28;20403;-85
2022/06/06 12:28:29;;;;;;;3.40;2.05;;;20.70;99.90;;;;;;4999896;28;20406;-82
2022/06/06 12:31:16;;;;;;;2.20;1.83;;;20.80;99.90;;;;;;4988898;28;20884;-85
2022/06/06 12:34:14;;;;;;;2.58;2.10;;;20.90;99.90;;;;;;4988818;28;20411;-81
2022/06/06 12:37:18;;;;;;;3.37;2.20;;;21.00;99.90;;;;;;4962735;28;20511;-81
2022/06/06 12:40:12;;;;;;;3.50;1.90;;;20.90;99.90;;;;;;5011484;28;20411;-84
2022/06/06 12:42:46;;;;;;;3.00;1.90;;;21.10;99.90;;;;;;4992052;28;20436;-80
2022/06/06 12:45:29;;;;;;;4.22;2.22;;;21.20;99.90;;;;;;4992003;28;20396;-84
2022/06/06 12:48:20;;;;;;;3.30;2.10;;;21.20;99.90;;;;;;5002705;28;20421;-88
2022/06/06 12:51:07;;;;;;;2.88;2.20;;;21.30;99.90;;;;;;4974818;28;20416;-86
2022/06/06 12:54:06;;;;;;;3.60;2.00;;;21.40;99.90;;;;;;4977679;28;20882;-85
2022/06/06 13:03:29;;;;;;;3.65;2.10;;;20.90;99.90;;;;;;4993621;28;20577;-87
2022/06/06 13:06:13;;;;;;;3.72;2.00;;;20.80;99.90;;;;;;4970418;28;20394;-82
2022/06/06 13:09:03;;;;;;;3.90;2.00;;;20.70;99.90;;;;;;4985371;28;20415;-82
2022/06/06 13:11:48;;;;;;;4.95;2.20;;;20.60;99.90;;;;;;4980276;28;20458;-80
2022/06/06 13:14:30;;;;;;;4.07;2.50;;;20.70;99.90;;;;;;4986213;28;20474;-80
2022/06/06 13:17:22;;;;;;;2.35;1.95;;;20.60;99.90;;;;;;4977058;28;20457;-81
2022/06/06 13:20:03;;;;;;;3.78;2.25;;;20.70;99.90;;;;;;4972377;28;20454;-81
2022/06/06 13:22:56;;;;;;;4.35;2.00;;;20.70;99.90;;;;;;4978975;28;20460;-80
2022/06/06 13:25:56;;;;;;;3.50;2.30;;;20.60;99.90;;;;;;4981398;28;20429;-81
2022/06/06 13:28:41;;;;;;;4.20;2.40;;;20.50;99.90;;;;;;4978629;28;20410;-80
2022/06/06 13:31:17;;;;;;;3.75;2.30;;;20.50;99.90;;;;;;4974877;28;20420;-80
2022/06/06 13:33:45;;;;;;;3.60;2.30;;;20.40;99.90;;;;;;4993823;28;20429;-80
2022/06/06 13:36:49;;;;;;;3.10;2.20;;;20.50;99.90;;;;;;4990424;28;20497;-80
2022/06/06 13:39:25;;;;;;;3.13;2.10;;;20.60;99.90;;;;;;4978775;28;20394;-81
2022/06/06 13:42:12;;;;;;;6.85;2.50;;;20.70;99.90;;;;;;4993177;28;20397;-80
2022/06/06 13:45:01;;;;;;;5.03;2.15;;;20.60;99.90;;;;;;4977774;28;20392;-80
2022/06/06 13:48:11;;;;;;;3.13;2.20;;;20.60;99.90;;;;;;4969643;28;20420;-80
2022/06/06 13:50:57;;;;;;;3.57;2.23;;;20.50;99.90;;;;;;4979375;28;20468;-80
2022/06/06 13:53:56;;;;;;;4.13;2.30;;;20.50;99.90;;;;;;4979245;28;20414;-80
2022/06/06 13:56:41;;;;;;;4.07;2.17;;;20.80;99.90;;;;;;4989985;28;20414;-80
2022/06/06 13:59:30;;;;;;;5.20;2.30;;;21.00;99.90;;;;;;4981729;28;20406;-80
2022/06/06 14:02:10;;;;;;;4.68;2.45;;;21.20;99.90;;;;;;4958640;28;20399;-80
2022/06/06 14:04:58;;;;;;;3.53;2.30;;;21.20;99.90;;;;;;4982404;28;20383;-80
2022/06/06 14:07:31;;;;;;;4.30;2.08;;;21.40;99.90;;;;;;4995657;28;20395;-80
2022/06/06 14:10:08;;;;;;;3.00;2.05;;;21.50;99.90;;;;;;4977888;28;20395;-80
2022/06/06 14:13:16;;;;;;;3.53;2.20;;;21.50;99.90;;;;;;4981829;28;20398;-80
2022/06/06 14:15:48;;;;;;;4.10;2.10;;;21.40;99.90;;;;;;4993121;28;20402;-80
2022/06/06 14:18:27;;;;;;;3.42;2.10;;;21.20;99.90;;;;;;4993946;28;20909;-82
2022/06/06 14:20:58;;;;;;;6.55;2.45;;;21.10;99.90;;;;;;4981391;28;20386;-80
2022/06/06 14:23:28;;;;;;;3.33;2.10;;;21.10;99.90;;;;;;4993503;28;20406;-81
2022/06/06 14:26:07;;;;;;;3.47;2.17;;;21.00;99.90;;;;;;4995821;28;20429;-80
2022/06/06 14:28:40;;;;;;;4.27;1.90;;;20.90;99.90;;;;;;4977721;28;20419;-81
2022/06/06 14:31:25;;;;;;;3.38;2.25;;;20.80;99.90;;;;;;4980434;28;20427;-81
2022/06/06 14:33:59;;;;;;;3.17;2.40;;;20.70;99.90;;;;;;4976997;28;20408;-83
2022/06/06 14:36:29;;;;;;;2.90;2.30;;;20.70;99.90;;;;;;4976826;28;20440;-84
2022/06/06 14:38:59;;;;;;;3.78;2.17;;;20.60;99.90;;;;;;4975827;28;20391;-87